Time;durP1;ratioP1;P1;durP2;ratioP2;P2;SDS_P1;SDS_P2;PMS_P1;PMS_P2;Temp;Humidity;BMP_temperature;BMP_pressure;BME280_temperature;BME280_humidity;BME280_pressure;Samples;Min_cycle;Max_cycle;Signal;HPM_P1;HPM_P2
2022/08/27 00:00:14;;;;;;;2.55;1.10;;;12.70;99.90;;;;;;4997583;28;20484;-80
2022/08/27 00:02:42;;;;;;;2.17;1.08;;;12.70;99.90;;;;;;5013566;28;20523;-80
2022/08/27 00:05:11;;;;;;;1.90;1.10;;;12.70;99.90;;;;;;5014738;28;20049;-80
2022/08/27 00:07:38;;;;;;;2.00;1.17;;;12.70;99.90;;;;;;4999958;28;20061;-80
2022/08/27 00:10:06;;;;;;;2.92;1.30;;;12.60;99.90;;;;;;5017382;28;20057;-80
2022/08/27 00:12:33;;;;;;;1.40;1.00;;;12.60;99.90;;;;;;5017201;28;20044;-80
2022/08/27 00:14:59;;;;;;;4.22;1.42;;;12.60;99.90;;;;;;5000726;28;20048;-81
2022/08/27 00:17:25;;;;;;;1.75;1.05;;;12.60;99.90;;;;;;5016539;28;20083;-81
2022/08/27 00:19:51;;;;;;;1.73;1.13;;;12.60;99.90;;;;;;5016592;28;20049;-81
2022/08/27 00:22:16;;;;;;;2.35;1.20;;;12.60;99.90;;;;;;5017128;28;20430;-82
2022/08/27 00:24:42;;;;;;;2.40;1.38;;;12.60;99.90;;;;;;5016734;28;20056;-82
2022/08/27 00:27:08;;;;;;;3.50;1.25;;;12.60;99.90;;;;;;5000525;28;20124;-82
2022/08/27 00:29:34;;;;;;;2.08;1.20;;;12.60;99.90;;;;;;5014902;28;20037;-81
2022/08/27 00:31:59;;;;;;;3.63;1.20;;;12.50;99.90;;;;;;5016516;28;20099;-81
2022/08/27 00:34:26;;;;;;;2.58;1.40;;;12.60;99.90;;;;;;5016358;28;20045;-81
2022/08/27 00:36:52;;;;;;;1.85;1.13;;;12.60;99.90;;;;;;4984798;28;20043;-80
2022/08/27 00:39:19;;;;;;;2.58;1.38;;;12.60;99.90;;;;;;5016446;28;20038;-80
2022/08/27 00:41:45;;;;;;;1.63;0.98;;;12.60;99.90;;;;;;5016177;28;20041;-81
2022/08/27 00:44:11;;;;;;;2.28;1.20;;;12.70;99.90;;;;;;4999826;28;20530;-81
2022/08/27 00:46:56;;;;;;;1.80;1.30;;;12.60;99.90;;;;;;5000188;28;20068;-80
2022/08/27 00:49:49;;;;;;;2.45;1.20;;;12.60;99.90;;;;;;5016022;28;20096;-81
2022/08/27 00:52:29;;;;;;;3.08;1.25;;;12.60;99.90;;;;;;5008659;28;20049;-80
2022/08/27 00:55:17;;;;;;;2.03;1.20;;;12.60;99.90;;;;;;5016269;28;20511;-81
2022/08/27 00:57:47;;;;;;;2.72;1.33;;;12.50;99.90;;;;;;5000279;28;20434;-81
2022/08/27 01:00:16;;;;;;;2.33;1.25;;;12.60;99.90;;;;;;4999952;28;20116;-81
2022/08/27 01:02:42;;;;;;;2.28;1.10;;;12.60;99.90;;;;;;5015916;28;20058;-81
2022/08/27 01:05:19;;;;;;;1.35;1.05;;;12.60;99.90;;;;;;5008218;22;20381;-81
2022/08/27 01:07:49;;;;;;;2.00;1.17;;;12.70;99.90;;;;;;5016461;28;20041;-81
2022/08/27 01:10:18;;;;;;;2.90;1.35;;;12.80;99.90;;;;;;5009628;28;20098;-81
2022/08/27 01:12:45;;;;;;;2.10;1.30;;;12.90;99.90;;;;;;4999708;28;20037;-81
2022/08/27 01:15:13;;;;;;;2.35;1.35;;;13.00;99.90;;;;;;5015716;28;20041;-81
2022/08/27 01:17:41;;;;;;;2.70;1.40;;;13.00;99.90;;;;;;5014878;28;20037;-82
2022/08/27 01:20:14;;;;;;;3.60;1.40;;;13.10;99.90;;;;;;4998760;28;20046;-81
2022/08/27 01:22:55;;;;;;;3.03;1.50;;;13.00;99.90;;;;;;5043491;28;20041;-81
2022/08/27 01:25:22;;;;;;;3.45;2.00;;;13.10;99.90;;;;;;4990945;28;20046;-81
2022/08/27 01:27:49;;;;;;;2.72;1.38;;;13.10;99.90;;;;;;4983404;28;20034;-81
2022/08/27 01:30:17;;;;;;;3.35;1.52;;;13.10;99.90;;;;;;5016574;28;20442;-81
2022/08/27 01:32:44;;;;;;;2.65;1.48;;;13.10;99.90;;;;;;5016136;28;20045;-81
2022/08/27 01:35:13;;;;;;;2.72;1.60;;;13.10;99.90;;;;;;5016155;28;20060;-81
2022/08/27 01:37:40;;;;;;;3.25;1.58;;;13.00;99.90;;;;;;5012574;28;20499;-81
2022/08/27 01:40:07;;;;;;;3.17;1.40;;;13.00;99.90;;;;;;5007173;28;20048;-81
2022/08/27 01:42:40;;;;;;;2.85;1.30;;;12.90;99.90;;;;;;4999776;28;20535;-81
2022/08/27 01:45:09;;;;;;;2.95;1.50;;;12.90;99.90;;;;;;5029191;28;20583;-81
2022/08/27 01:47:36;;;;;;;1.83;1.23;;;12.90;99.90;;;;;;5015764;28;20507;-82
2022/08/27 01:50:08;;;;;;;2.40;1.20;;;12.80;99.90;;;;;;4985612;28;20125;-81
2022/08/27 01:52:34;;;;;;;2.88;1.30;;;12.80;99.90;;;;;;5016383;28;20041;-81
2022/08/27 01:55:00;;;;;;;2.38;1.20;;;12.80;99.90;;;;;;5013415;28;20041;-81
2022/08/27 01:57:26;;;;;;;2.17;1.40;;;12.80;99.90;;;;;;5031601;28;20041;-81
2022/08/27 01:59:53;;;;;;;3.80;1.70;;;12.80;99.90;;;;;;4999137;28;20514;-81
2022/08/27 02:02:19;;;;;;;3.45;2.00;;;12.80;99.90;;;;;;5015621;28;20045;-81
2022/08/27 02:04:45;;;;;;;4.53;2.03;;;12.80;99.90;;;;;;4999196;28;20053;-81
2022/08/27 02:07:11;;;;;;;2.72;1.60;;;12.80;99.90;;;;;;4998144;28;20053;-81
2022/08/27 02:09:37;;;;;;;1.98;1.20;;;12.70;99.90;;;;;;4989644;28;20033;-81
2022/08/27 02:12:03;;;;;;;2.92;1.20;;;12.60;99.90;;;;;;4996898;28;20041;-80
2022/08/27 02:14:29;;;;;;;2.83;1.40;;;12.50;99.90;;;;;;4999596;28;20077;-80
2022/08/27 02:16:55;;;;;;;2.90;1.65;;;12.40;99.90;;;;;;5006602;28;20065;-80
2022/08/27 02:19:21;;;;;;;3.67;1.13;;;12.40;99.90;;;;;;5025680;28;20040;-80
2022/08/27 02:21:48;;;;;;;3.00;1.85;;;12.30;99.90;;;;;;5005852;28;20046;-80
2022/08/27 02:24:13;;;;;;;2.10;1.33;;;12.30;99.90;;;;;;5016717;28;20064;-80
2022/08/27 02:26:39;;;;;;;3.67;1.67;;;12.20;99.90;;;;;;4986398;28;20046;-80
2022/08/27 02:29:06;;;;;;;2.30;1.40;;;12.30;99.90;;;;;;5013779;28;20459;-81
2022/08/27 02:31:32;;;;;;;2.38;1.30;;;12.30;99.90;;;;;;5009350;28;20129;-81
2022/08/27 02:33:59;;;;;;;3.60;1.67;;;12.30;99.90;;;;;;5018367;28;20033;-82
2022/08/27 02:36:24;;;;;;;1.92;1.20;;;12.30;99.90;;;;;;5009507;28;20123;-81
2022/08/27 02:38:50;;;;;;;3.78;1.70;;;12.30;99.90;;;;;;5025643;28;20498;-81
2022/08/27 02:41:17;;;;;;;3.05;1.77;;;12.30;99.90;;;;;;5019416;28;20120;-82
2022/08/27 02:43:44;;;;;;;3.50;1.50;;;12.40;99.90;;;;;;5001577;28;20068;-81
2022/08/27 02:46:10;;;;;;;2.17;1.42;;;12.40;99.90;;;;;;5019077;28;20099;-81
2022/08/27 02:48:40;;;;;;;3.38;1.63;;;12.30;99.90;;;;;;5022671;28;20038;-81
2022/08/27 02:51:07;;;;;;;4.45;1.63;;;12.20;99.90;;;;;;5014023;28;20041;-81
2022/08/27 02:53:33;;;;;;;2.92;1.30;;;12.20;99.90;;;;;;5014649;28;20033;-81
2022/08/27 02:55:59;;;;;;;3.33;1.60;;;12.20;99.90;;;;;;5032542;28;20404;-81
2022/08/27 02:58:24;;;;;;;2.47;1.20;;;12.20;99.90;;;;;;5018541;28;20041;-82
2022/08/27 03:00:50;;;;;;;2.60;1.58;;;12.20;99.90;;;;;;4995814;28;20459;-80
2022/08/27 03:03:17;;;;;;;2.08;1.17;;;12.40;99.90;;;;;;5031235;28;20103;-80
2022/08/27 03:05:43;;;;;;;2.83;1.65;;;12.40;99.90;;;;;;5014219;28;20081;-80
2022/08/27 03:08:09;;;;;;;1.77;1.27;;;12.40;99.90;;;;;;5006642;28;20395;-80
2022/08/27 03:10:34;;;;;;;1.98;1.30;;;12.50;99.90;;;;;;5018746;28;20045;-80
2022/08/27 03:13:00;;;;;;;2.30;1.35;;;12.60;99.90;;;;;;5017021;28;20037;-80
2022/08/27 03:15:26;;;;;;;3.55;1.38;;;12.70;99.90;;;;;;5008555;28;20053;-80
2022/08/27 03:20:39;;;;;;;3.03;1.17;;;13.00;99.90;;;;;;5011464;28;20045;-81
2022/08/27 03:23:06;;;;;;;1.27;1.00;;;13.10;99.90;;;;;;5000819;28;20109;-81
2022/08/27 03:25:32;;;;;;;1.95;1.45;;;13.10;99.90;;;;;;5017788;28;20046;-81
2022/08/27 03:27:57;;;;;;;2.83;1.63;;;13.10;99.90;;;;;;5021334;28;20045;-81
2022/08/27 03:30:24;;;;;;;2.63;1.38;;;13.10;99.90;;;;;;4990790;28;20048;-81
2022/08/27 03:32:50;;;;;;;2.15;1.60;;;13.20;99.90;;;;;;5001331;28;20041;-81
2022/08/27 03:35:18;;;;;;;2.42;1.40;;;13.20;99.90;;;;;;5017832;28;20060;-82
2022/08/27 03:37:45;;;;;;;3.15;1.63;;;13.20;99.90;;;;;;5014184;28;20060;-81
2022/08/27 03:40:12;;;;;;;2.65;1.50;;;13.30;99.90;;;;;;5007895;28;20365;-82
2022/08/27 03:42:38;;;;;;;2.15;1.30;;;13.40;99.90;;;;;;5009059;28;20528;-82
2022/08/27 03:45:05;;;;;;;1.90;1.15;;;13.40;99.90;;;;;;5017383;28;20124;-81
2022/08/27 03:47:31;;;;;;;4.75;1.42;;;13.50;99.90;;;;;;4999969;28;20037;-81
2022/08/27 03:49:59;;;;;;;2.35;1.48;;;13.60;99.90;;;;;;5030679;28;20069;-82
2022/08/27 03:52:25;;;;;;;2.90;1.25;;;13.60;99.90;;;;;;5040293;28;20041;-82
2022/08/27 03:54:51;;;;;;;2.80;1.38;;;13.60;99.90;;;;;;5000765;28;20095;-82
2022/08/27 03:57:16;;;;;;;3.33;1.73;;;13.70;99.90;;;;;;5027441;28;20041;-81
2022/08/27 03:59:42;;;;;;;2.13;1.35;;;13.70;99.90;;;;;;5011015;28;20034;-82
2022/08/27 04:02:08;;;;;;;3.03;1.50;;;13.70;99.90;;;;;;5008614;28;20462;-82
2022/08/27 04:04:34;;;;;;;3.03;1.40;;;13.80;99.90;;;;;;5016311;28;20037;-81
2022/08/27 04:07:00;;;;;;;2.30;1.33;;;13.80;99.90;;;;;;5034536;28;20052;-80
2022/08/27 04:09:26;;;;;;;3.97;1.60;;;13.80;99.90;;;;;;5000433;28;20442;-80
2022/08/27 04:11:51;;;;;;;3.50;1.20;;;13.80;99.90;;;;;;5016220;28;20079;-80
2022/08/27 04:14:18;;;;;;;2.78;1.38;;;13.90;99.90;;;;;;5017978;28;20083;-80
2022/08/27 04:16:43;;;;;;;1.92;1.20;;;13.90;99.90;;;;;;5027123;28;20543;-80
2022/08/27 04:19:11;;;;;;;3.55;1.65;;;13.90;99.90;;;;;;4993899;28;20116;-80
2022/08/27 04:21:37;;;;;;;2.28;1.23;;;13.90;99.90;;;;;;5016317;28;20041;-80
2022/08/27 04:24:03;;;;;;;2.97;1.52;;;13.90;99.90;;;;;;5018917;28;20486;-81
2022/08/27 04:26:29;;;;;;;2.40;1.30;;;13.80;99.90;;;;;;4984393;28;20044;-81
2022/08/27 04:28:57;;;;;;;2.60;1.50;;;13.70;99.90;;;;;;5000188;28;20045;-81
2022/08/27 04:31:22;;;;;;;4.22;1.83;;;13.70;99.90;;;;;;5000075;28;20501;-82
2022/08/27 04:33:48;;;;;;;2.33;1.40;;;13.70;99.90;;;;;;5016868;28;20084;-81
2022/08/27 04:36:16;;;;;;;2.67;1.35;;;13.60;99.90;;;;;;4991627;28;20041;-81
2022/08/27 04:38:42;;;;;;;4.20;1.35;;;13.60;99.90;;;;;;5011805;28;20049;-82
2022/08/27 04:41:18;;;;;;;2.67;1.30;;;13.60;99.90;;;;;;5016752;28;20041;-82
2022/08/27 04:43:45;;;;;;;3.78;1.40;;;13.60;99.90;;;;;;5000684;28;20045;-81
2022/08/27 04:46:11;;;;;;;6.03;1.35;;;13.50;99.90;;;;;;4998978;28;20128;-81
2022/08/27 04:48:37;;;;;;;4.63;1.77;;;13.50;99.90;;;;;;5024408;28;20033;-81
2022/08/27 04:51:03;;;;;;;1.63;1.20;;;13.50;99.90;;;;;;4987828;28;20048;-81
2022/08/27 04:53:29;;;;;;;2.17;1.10;;;13.50;99.90;;;;;;5032557;28;20044;-81
2022/08/27 04:55:55;;;;;;;2.35;1.10;;;13.40;99.90;;;;;;5016600;28;20041;-81
2022/08/27 04:58:23;;;;;;;1.08;0.90;;;13.40;99.90;;;;;;5018786;28;20217;-82
2022/08/27 05:01:00;;;;;;;2.08;1.17;;;13.50;99.90;;;;;;5031233;28;20043;-82
2022/08/27 05:03:27;;;;;;;1.90;1.35;;;13.50;99.90;;;;;;5011698;28;20045;-81
2022/08/27 05:05:58;;;;;;;2.25;1.30;;;13.50;99.90;;;;;;5030389;28;20054;-81
2022/08/27 05:08:24;;;;;;;3.05;1.50;;;13.40;99.90;;;;;;4994061;28;20084;-81
2022/08/27 05:10:50;;;;;;;2.35;1.27;;;13.40;99.90;;;;;;5024242;28;20073;-82
2022/08/27 05:13:22;;;;;;;3.67;1.63;;;13.40;99.90;;;;;;5036643;28;20132;-81
2022/08/27 05:15:49;;;;;;;2.28;1.48;;;13.40;99.90;;;;;;5027031;28;20045;-81
2022/08/27 05:18:15;;;;;;;3.45;1.02;;;13.50;99.90;;;;;;5007273;28;20393;-81
2022/08/27 05:20:50;;;;;;;1.90;1.15;;;13.60;99.90;;;;;;5006953;28;20045;-81
2022/08/27 05:23:17;;;;;;;2.73;1.17;;;13.60;99.90;;;;;;5016134;28;20049;-81
2022/08/27 05:25:45;;;;;;;1.45;1.17;;;13.80;99.90;;;;;;5016233;28;20084;-81
2022/08/27 05:28:12;;;;;;;2.83;1.58;;;13.90;99.90;;;;;;5012323;28;20081;-81
2022/08/27 05:30:41;;;;;;;2.63;1.33;;;14.00;99.90;;;;;;5021987;28;20035;-82
2022/08/27 05:33:07;;;;;;;1.95;1.13;;;14.10;99.90;;;;;;5026398;28;20415;-82
2022/08/27 05:35:44;;;;;;;1.83;1.08;;;14.30;99.90;;;;;;5007140;28;20083;-82
2022/08/27 05:38:10;;;;;;;1.70;0.93;;;14.40;99.90;;;;;;5014755;28;20129;-82
2022/08/27 05:40:37;;;;;;;2.47;1.10;;;14.50;99.90;;;;;;5011954;28;20132;-82
2022/08/27 05:43:04;;;;;;;1.63;1.20;;;14.60;99.90;;;;;;4998580;28;20116;-82
2022/08/27 05:45:30;;;;;;;4.15;1.40;;;14.70;99.90;;;;;;4995352;28;20042;-84
2022/08/27 05:47:57;;;;;;;2.88;0.93;;;14.80;99.90;;;;;;5017432;28;20048;-83
2022/08/27 05:50:25;;;;;;;2.42;1.30;;;14.90;99.90;;;;;;5018958;28;20559;-82
2022/08/27 05:52:51;;;;;;;3.22;1.45;;;15.10;99.90;;;;;;5019902;28;20041;-82
2022/08/27 05:55:17;;;;;;;2.95;1.20;;;15.20;99.90;;;;;;5018934;28;20041;-82
2022/08/27 05:57:42;;;;;;;3.10;1.35;;;15.30;99.90;;;;;;4970512;28;20091;-81
2022/08/27 06:02:52;;;;;;;2.35;1.17;;;15.40;99.90;;;;;;4994030;28;20045;-81
2022/08/27 06:05:18;;;;;;;1.83;1.20;;;15.60;99.90;;;;;;5002139;28;20042;-81
2022/08/27 06:07:44;;;;;;;3.38;1.10;;;15.70;99.90;;;;;;4997012;28;20048;-81
2022/08/27 06:10:10;;;;;;;2.55;1.10;;;15.80;99.90;;;;;;4999857;28;20383;-81
2022/08/27 06:12:37;;;;;;;3.28;1.13;;;15.90;99.90;;;;;;5019134;28;20041;-81
2022/08/27 06:15:03;;;;;;;3.53;1.10;;;16.00;99.90;;;;;;5008270;28;20046;-81
2022/08/27 06:17:29;;;;;;;1.38;0.88;;;16.10;99.90;;;;;;4999319;28;20060;-82
2022/08/27 06:19:55;;;;;;;2.03;1.02;;;16.20;99.90;;;;;;4967696;28;20476;-81
2022/08/27 06:22:21;;;;;;;1.20;0.93;;;16.30;99.90;;;;;;5006837;28;20511;-80
2022/08/27 06:24:47;;;;;;;2.72;1.23;;;16.30;99.90;;;;;;5004337;28;20041;-80
2022/08/27 06:27:16;;;;;;;1.88;1.10;;;16.40;99.90;;;;;;5034891;28;20049;-80
2022/08/27 06:29:43;;;;;;;3.28;1.50;;;16.50;99.90;;;;;;5002344;28;20043;-80
2022/08/27 06:32:09;;;;;;;1.88;1.02;;;16.60;99.90;;;;;;5017397;28;20060;-80
2022/08/27 06:34:36;;;;;;;2.15;1.30;;;16.70;99.90;;;;;;5030597;28;20038;-80
2022/08/27 06:37:02;;;;;;;1.90;1.00;;;16.80;99.90;;;;;;5018307;28;20035;-80
2022/08/27 06:39:28;;;;;;;1.38;1.08;;;16.90;99.90;;;;;;4984257;28;20038;-80
2022/08/27 06:41:54;;;;;;;2.20;1.00;;;17.00;99.90;;;;;;5012555;28;20026;-80
2022/08/27 06:44:21;;;;;;;2.42;1.30;;;17.00;99.90;;;;;;5004556;28;20498;-81
2022/08/27 06:46:47;;;;;;;0.88;0.73;;;17.00;99.90;;;;;;5014028;28;20478;-81
2022/08/27 06:49:12;;;;;;;5.15;0.90;;;17.10;99.90;;;;;;4998917;28;20038;-80
2022/08/27 06:51:41;;;;;;;1.63;1.20;;;17.10;99.90;;;;;;5015005;28;20048;-81
2022/08/27 06:54:10;;;;;;;3.13;1.00;;;17.20;99.90;;;;;;5000867;28;20505;-81
2022/08/27 06:56:37;;;;;;;1.65;0.93;;;17.20;99.90;;;;;;5033569;28;20394;-82
2022/08/27 06:59:06;;;;;;;1.08;0.95;;;17.20;99.90;;;;;;5021565;28;20048;-82
2022/08/27 07:01:36;;;;;;;1.50;1.00;;;17.30;99.90;;;;;;5001928;28;20045;-82
2022/08/27 07:04:05;;;;;;;1.42;0.90;;;17.30;99.90;;;;;;5019141;28;20418;-82
2022/08/27 07:06:32;;;;;;;1.48;1.00;;;17.40;99.90;;;;;;5011305;28;20452;-82
2022/08/27 07:08:58;;;;;;;1.25;0.90;;;17.50;99.90;;;;;;5016778;28;20033;-81
2022/08/27 07:11:25;;;;;;;2.20;1.00;;;17.60;99.90;;;;;;5022444;28;20049;-81
2022/08/27 07:13:51;;;;;;;1.85;0.80;;;17.70;99.90;;;;;;5021994;28;20032;-81
2022/08/27 07:16:23;;;;;;;1.33;0.88;;;17.80;99.90;;;;;;4996237;28;20474;-82
2022/08/27 07:18:50;;;;;;;0.70;0.70;;;17.90;99.90;;;;;;5014738;28;20400;-82
2022/08/27 07:21:18;;;;;;;2.65;0.95;;;18.00;99.90;;;;;;5017182;28;20041;-81
2022/08/27 07:23:44;;;;;;;3.45;1.10;;;18.10;99.90;;;;;;5001750;28;20152;-82
2022/08/27 07:26:12;;;;;;;3.00;0.90;;;18.30;99.90;;;;;;5020117;28;20099;-82
2022/08/27 07:28:39;;;;;;;1.00;0.50;;;18.40;99.90;;;;;;4984538;28;20060;-82
2022/08/27 07:31:10;;;;;;;2.10;0.88;;;18.50;99.90;;;;;;4979604;28;20034;-83
2022/08/27 07:33:37;;;;;;;2.53;1.15;;;18.70;99.90;;;;;;5015325;28;20065;-82
2022/08/27 07:36:07;;;;;;;2.00;0.93;;;19.40;99.90;;;;;;4994910;28;20099;-82
2022/08/27 07:38:34;;;;;;;2.83;0.85;;;20.70;99.90;;;;;;5015705;28;20563;-82
2022/08/27 07:41:08;;;;;;;5.53;1.35;;;22.70;99.90;;;;;;5015280;28;20076;-82
2022/08/27 07:46:20;;;;;;;2.38;0.90;;;23.40;99.90;;;;;;5019787;28;20045;-81
2022/08/27 07:48:47;;;;;;;2.58;0.70;;;23.00;99.90;;;;;;5007368;28;20087;-81
2022/08/27 07:51:16;;;;;;;3.70;0.82;;;22.60;99.90;;;;;;5012350;28;20045;-81
2022/08/27 07:53:43;;;;;;;2.88;1.00;;;22.10;99.90;;;;;;5016581;28;20154;-81
2022/08/27 07:56:09;;;;;;;1.77;0.95;;;21.70;99.90;;;;;;5016501;28;20045;-81
2022/08/27 07:58:35;;;;;;;1.70;0.60;;;21.30;99.90;;;;;;5012531;28;20054;-80
2022/08/27 08:01:01;;;;;;;1.20;0.77;;;20.90;99.90;;;;;;5012260;28;20054;-82
2022/08/27 08:03:27;;;;;;;1.13;0.50;;;20.60;99.90;;;;;;4996598;28;20045;-81
2022/08/27 08:05:53;;;;;;;2.17;0.77;;;20.30;99.90;;;;;;5015529;28;20049;-81
2022/08/27 08:08:20;;;;;;;1.77;0.80;;;20.10;99.90;;;;;;4981617;28;20060;-81
2022/08/27 08:10:47;;;;;;;1.42;0.63;;;20.00;99.90;;;;;;4996056;28;20562;-81
2022/08/27 08:13:16;;;;;;;2.25;1.08;;;20.00;99.90;;;;;;4981120;28;20040;-81
2022/08/27 08:15:44;;;;;;;0.63;0.30;;;19.90;99.90;;;;;;4999209;28;20072;-81
2022/08/27 08:18:10;;;;;;;2.75;0.60;;;20.00;99.90;;;;;;4997927;28;20172;-80
2022/08/27 08:20:36;;;;;;;0.63;0.60;;;20.00;99.90;;;;;;5022541;28;20152;-80
2022/08/27 08:23:01;;;;;;;2.17;0.70;;;20.10;99.90;;;;;;5014853;28;20376;-80
2022/08/27 08:25:27;;;;;;;0.80;0.57;;;20.20;99.90;;;;;;4997461;28;20045;-80
2022/08/27 08:27:54;;;;;;;5.38;0.80;;;20.20;99.90;;;;;;5015273;28;20065;-80
2022/08/27 08:30:20;;;;;;;4.38;1.48;;;20.40;99.90;;;;;;4997828;28;20467;-80
2022/08/27 08:32:45;;;;;;;2.47;0.98;;;21.90;99.90;;;;;;5013420;28;20041;-80
2022/08/27 08:35:11;;;;;;;2.15;0.70;;;24.30;99.90;;;;;;5015134;28;20688;-81
2022/08/27 08:37:37;;;;;;;0.85;0.52;;;26.20;94.80;;;;;;5015575;28;20043;-81
2022/08/27 08:40:04;;;;;;;3.33;1.08;;;26.20;93.30;;;;;;5011842;28;20041;-82
2022/08/27 08:42:44;;;;;;;3.50;0.73;;;25.50;92.70;;;;;;4998317;28;20091;-82
2022/08/27 08:45:13;;;;;;;1.13;0.52;;;24.80;94.00;;;;;;5015358;28;20484;-81
2022/08/27 08:47:49;;;;;;;1.75;0.82;;;24.50;95.30;;;;;;4993619;28;20518;-82
2022/08/27 08:50:35;;;;;;;1.98;0.63;;;25.20;95.00;;;;;;4995900;28;20467;-81
2022/08/27 08:53:10;;;;;;;1.17;0.52;;;26.90;94.90;;;;;;4998949;28;20033;-81
2022/08/27 08:55:52;;;;;;;3.25;0.70;;;28.40;90.90;;;;;;5015648;28;20081;-80
2022/08/27 08:58:33;;;;;;;1.48;0.57;;;27.90;89.10;;;;;;4998661;28;20475;-78
2022/08/27 09:01:02;;;;;;;3.13;0.82;;;26.90;89.20;;;;;;5015584;28;21035;-78
2022/08/27 09:03:31;;;;;;;1.00;0.65;;;26.20;90.80;;;;;;5015416;28;20041;-78
2022/08/27 09:06:07;;;;;;;1.80;0.82;;;25.30;91.30;;;;;;5015126;28;20510;-78
2022/08/27 09:08:36;;;;;;;3.58;1.05;;;24.80;92.30;;;;;;5031137;28;20041;-78
2022/08/27 09:11:27;;;;;;;2.42;0.82;;;24.20;92.70;;;;;;4997973;28;20029;-78
2022/08/27 09:13:59;;;;;;;1.77;1.02;;;23.90;92.80;;;;;;5015264;28;20372;-77
2022/08/27 09:16:26;;;;;;;1.02;0.70;;;23.60;93.80;;;;;;4997279;28;20435;-78
2022/08/27 09:18:53;;;;;;;2.03;0.88;;;23.40;94.10;;;;;;5015078;28;20072;-77
2022/08/27 09:21:29;;;;;;;0.70;0.50;;;23.80;95.30;;;;;;5016129;28;20041;-78
2022/08/27 09:24:07;;;;;;;2.45;0.93;;;25.70;94.50;;;;;;5019166;28;20045;-79
2022/08/27 09:26:37;;;;;;;1.13;0.57;;;27.80;89.70;;;;;;5017967;28;20049;-79
2022/08/27 09:29:15;;;;;;;1.45;0.57;;;29.20;89.90;;;;;;5008636;28;20056;-79
2022/08/27 09:31:43;;;;;;;1.88;0.77;;;30.00;86.10;;;;;;5018951;28;20124;-79
2022/08/27 09:34:09;;;;;;;3.15;1.35;;;31.30;83.20;;;;;;5020584;28;20126;-80
2022/08/27 09:36:47;;;;;;;0.68;0.43;;;31.50;79.90;;;;;;5003841;28;20128;-80
2022/08/27 09:39:13;;;;;;;3.22;0.85;;;33.00;81.90;;;;;;5021044;28;20081;-80
2022/08/27 09:41:44;;;;;;;1.63;0.70;;;33.40;76.30;;;;;;5020304;28;20442;-78
2022/08/27 09:44:13;;;;;;;1.95;0.82;;;34.00;76.70;;;;;;5022664;28;20045;-78
2022/08/27 09:47:01;;;;;;;4.80;0.80;;;33.00;75.60;;;;;;5039532;28;20040;-78
2022/08/27 09:49:27;;;;;;;2.55;0.63;;;32.90;76.70;;;;;;5039168;28;20072;-79
2022/08/27 09:51:54;;;;;;;3.03;0.85;;;32.90;76.00;;;;;;5027460;28;20036;-79
2022/08/27 09:54:43;;;;;;;1.75;0.68;;;32.20;75.40;;;;;;5019418;28;20037;-79
2022/08/27 09:57:11;;;;;;;2.42;0.57;;;31.10;75.00;;;;;;5018751;28;20051;-81
2022/08/27 09:59:42;;;;;;;3.42;0.82;;;29.80;76.10;;;;;;5003203;28;20054;-81
2022/08/27 10:02:18;;;;;;;1.38;0.40;;;28.80;79.40;;;;;;5009944;28;20391;-80
2022/08/27 10:04:50;;;;;;;1.65;0.60;;;28.30;80.40;;;;;;5022883;28;20052;-81
2022/08/27 10:07:52;;;;;;;2.47;0.45;;;27.90;81.20;;;;;;5038907;28;20071;-81
2022/08/27 10:10:55;;;;;;;2.00;0.80;;;27.60;83.00;;;;;;5020482;28;20037;-81
2022/08/27 10:13:38;;;;;;;1.38;0.40;;;27.10;84.40;;;;;;5015444;28;20041;-81
2022/08/27 10:16:22;;;;;;;1.67;0.52;;;27.80;82.50;;;;;;5000869;28;20098;-81
2022/08/27 10:18:57;;;;;;;2.97;0.68;;;28.50;80.00;;;;;;5012407;28;20040;-81
2022/08/27 10:21:43;;;;;;;2.75;0.55;;;28.40;80.30;;;;;;5020980;28;20044;-80
2022/08/27 10:24:27;;;;;;;2.38;0.45;;;28.10;81.80;;;;;;5007552;28;20044;-81
2022/08/27 10:27:14;;;;;;;2.60;0.80;;;27.40;82.80;;;;;;5038749;28;20431;-81
2022/08/27 10:29:59;;;;;;;1.00;0.60;;;27.50;83.90;;;;;;5009105;28;20073;-80
2022/08/27 10:32:55;;;;;;;1.95;0.60;;;27.10;83.20;;;;;;5034785;28;20147;-80
2022/08/27 10:35:45;;;;;;;2.90;0.60;;;26.60;84.50;;;;;;5015369;28;20414;-79
2022/08/27 10:38:39;;;;;;;0.68;0.40;;;26.10;85.20;;;;;;5027777;28;20037;-79
2022/08/27 10:41:24;;;;;;;1.15;0.52;;;26.00;86.80;;;;;;5007144;28;20049;-79
2022/08/27 10:44:11;;;;;;;1.98;0.45;;;26.40;86.90;;;;;;5017138;28;20491;-79
2022/08/27 10:47:12;;;;;;;1.63;0.70;;;27.60;85.00;;;;;;5011778;28;20052;-79
2022/08/27 10:49:51;;;;;;;2.55;0.80;;;28.00;81.10;;;;;;5009304;28;20030;-81
2022/08/27 10:52:20;;;;;;;6.18;0.73;;;27.90;82.20;;;;;;5016628;28;20048;-81
2022/08/27 10:55:25;;;;;;;1.17;0.35;;;27.70;82.30;;;;;;4996053;28;20088;-81
2022/08/27 10:58:00;;;;;;;1.02;0.70;;;27.40;82.50;;;;;;5052949;28;20048;-81
2022/08/27 11:00:42;;;;;;;1.05;0.68;;;27.40;82.80;;;;;;5013247;28;20056;-81
2022/08/27 11:03:33;;;;;;;1.15;0.60;;;27.50;84.20;;;;;;5029454;28;20033;-82
2022/08/27 11:06:03;;;;;;;1.17;0.25;;;27.40;84.80;;;;;;5004759;28;20046;-82
2022/08/27 11:08:53;;;;;;;0.95;0.40;;;27.70;80.80;;;;;;5016805;28;20549;-82
2022/08/27 11:11:46;;;;;;;1.13;0.47;;;27.80;82.30;;;;;;4997507;28;20037;-82
2022/08/27 11:14:31;;;;;;;1.23;0.73;;;28.30;81.40;;;;;;5017718;28;20488;-82
2022/08/27 11:17:03;;;;;;;1.98;0.68;;;28.30;81.70;;;;;;5014090;28;20044;-82
2022/08/27 11:19:41;;;;;;;2.33;0.85;;;28.80;82.10;;;;;;5015685;28;20124;-82
2022/08/27 11:22:22;;;;;;;3.53;1.05;;;30.00;80.20;;;;;;5020125;22;20054;-80
2022/08/27 11:24:58;;;;;;;1.73;0.82;;;30.50;77.40;;;;;;5010587;28;20065;-80
2022/08/27 11:27:29;;;;;;;1.58;0.65;;;31.10;79.20;;;;;;5012358;28;20057;-81
2022/08/27 11:30:08;;;;;;;1.60;0.50;;;31.80;76.70;;;;;;4994617;28;20157;-81
2022/08/27 11:32:54;;;;;;;3.83;0.55;;;30.90;75.10;;;;;;5004205;28;20484;-80
2022/08/27 11:35:25;;;;;;;2.08;0.70;;;29.60;77.40;;;;;;5006593;28;20046;-81
2022/08/27 11:38:12;;;;;;;1.98;0.75;;;28.50;78.60;;;;;;5009765;28;20391;-80
2022/08/27 11:40:38;;;;;;;2.38;0.63;;;27.70;81.10;;;;;;4993421;28;20049;-80
2022/08/27 11:43:09;;;;;;;1.45;0.68;;;27.20;81.90;;;;;;4995240;28;20049;-80
2022/08/27 11:45:54;;;;;;;1.92;0.38;;;27.40;83.80;;;;;;5010357;28;20038;-81
2022/08/27 11:48:20;;;;;;;0.85;0.50;;;27.20;82.10;;;;;;5007579;28;20045;-80
2022/08/27 11:51:01;;;;;;;2.17;0.70;;;26.70;81.70;;;;;;5012904;28;20495;-79
2022/08/27 11:53:33;;;;;;;2.08;0.40;;;26.30;83.30;;;;;;5003855;28;20042;-81
2022/08/27 11:56:15;;;;;;;0.35;0.35;;;26.60;85.00;;;;;;5014407;28;20579;-80
2022/08/27 11:58:42;;;;;;;1.75;0.68;;;27.50;86.10;;;;;;5006946;28;20587;-79
2022/08/27 12:01:26;;;;;;;0.30;0.30;;;28.60;81.10;;;;;;4958312;28;20045;-80
2022/08/27 12:04:07;;;;;;;1.95;0.77;;;29.10;80.60;;;;;;4993373;28;20047;-80
2022/08/27 12:06:43;;;;;;;2.20;0.43;;;29.40;79.00;;;;;;5008999;28;20050;-80
2022/08/27 12:09:27;;;;;;;0.80;0.60;;;29.80;80.00;;;;;;5006638;28;20038;-79
2022/08/27 12:12:28;;;;;;;0.77;0.50;;;30.30;76.90;;;;;;4992883;28;20042;-81
2022/08/27 12:15:04;;;;;;;1.35;0.47;;;30.50;77.60;;;;;;4992545;28;20076;-82
2022/08/27 12:17:43;;;;;;;4.68;0.60;;;30.40;77.80;;;;;;5008165;28;20095;-82
2022/08/27 12:20:37;;;;;;;2.17;0.55;;;30.50;77.10;;;;;;5011547;28;20511;-82
2022/08/27 12:26:21;;;;;;;0.50;0.35;;;30.10;75.80;;;;;;5011412;28;20037;-81
2022/08/27 12:28:47;;;;;;;0.57;0.40;;;29.60;76.20;;;;;;5009882;28;20030;-80
2022/08/27 12:31:20;;;;;;;0.80;0.28;;;29.70;77.40;;;;;;4994540;28;20060;-80
2022/08/27 12:33:50;;;;;;;1.08;0.40;;;29.90;76.90;;;;;;5011058;28;20124;-80
2022/08/27 12:36:24;;;;;;;2.92;0.70;;;29.90;77.60;;;;;;5011464;28;20045;-80
2022/08/27 12:38:54;;;;;;;3.03;0.85;;;29.50;75.90;;;;;;5007353;28;20125;-80
2022/08/27 12:41:25;;;;;;;1.42;0.63;;;28.80;76.30;;;;;;5011704;28;20399;-80
2022/08/27 12:44:02;;;;;;;0.52;0.52;;;28.00;77.20;;;;;;5010900;28;20060;-82
2022/08/27 12:46:28;;;;;;;1.73;0.55;;;27.50;79.20;;;;;;4994881;28;20132;-82
2022/08/27 12:48:58;;;;;;;1.85;0.50;;;27.30;79.10;;;;;;5009237;28;20120;-83
2022/08/27 12:51:32;;;;;;;1.42;0.50;;;26.90;80.20;;;;;;4993142;28;20041;-83
2022/08/27 12:54:22;;;;;;;1.80;0.68;;;26.50;80.80;;;;;;4995877;28;20073;-83
2022/08/27 12:57:26;;;;;;;1.92;0.55;;;26.40;82.40;;;;;;4991352;28;20511;-83
2022/08/27 13:00:12;;;;;;;0.82;0.40;;;26.60;81.30;;;;;;4996676;28;20128;-82
2022/08/27 13:02:47;;;;;;;1.95;1.02;;;26.70;81.80;;;;;;4995176;28;20575;-82
2022/08/27 13:05:16;;;;;;;1.27;0.47;;;26.70;81.90;;;;;;5006096;28;21767;-81
2022/08/27 13:07:45;;;;;;;2.75;1.10;;;26.70;80.60;;;;;;4995825;28;20492;-82
2022/08/27 13:10:34;;;;;;;2.88;0.90;;;26.90;82.60;;;;;;5010161;28;20042;-82
2022/08/27 13:13:10;;;;;;;3.30;1.20;;;26.80;81.50;;;;;;5006754;28;20072;-82
2022/08/27 13:15:45;;;;;;;2.88;0.90;;;26.50;78.80;;;;;;5014646;28;20045;-81
2022/08/27 13:18:10;;;;;;;1.50;0.87;;;26.50;81.10;;;;;;5010378;28;20080;-79